Time;durP1;ratioP1;P1;durP2;ratioP2;P2;SDS_P1;SDS_P2;PMS_P1;PMS_P2;Temp;Humidity;BMP_temperature;BMP_pressure;BME280_temperature;BME280_humidity;BME280_pressure;Samples;Min_cycle;Max_cycle;Signal;HPM_P1;HPM_P2
2022/01/04 00:00:09;;;;;;;1.63;1.20;;;;;;;9.29;51.36;96230.78;5116187;28;20572;-70
2022/01/04 00:02:34;;;;;;;4.85;1.63;;;;;;;9.36;50.96;96226.16;5116295;28;20023;-66
2022/01/04 00:05:00;;;;;;;1.90;1.25;;;;;;;9.37;51.14;96229.63;5116268;28;20046;-67
2022/01/04 00:07:26;;;;;;;2.75;1.58;;;;;;;9.36;51.30;96234.00;5116122;28;20016;-66
2022/01/04 00:09:52;;;;;;;3.25;1.40;;;;;;;9.38;50.94;96240.00;5116189;28;20107;-66
2022/01/04 00:15:04;;;;;;;1.65;1.40;;;;;;;9.43;51.43;96265.94;5116347;28;20057;-64
2022/01/04 00:17:30;;;;;;;2.55;1.52;;;;;;;9.41;51.10;96265.16;5116041;28;20012;-64
2022/01/04 00:19:55;;;;;;;2.40;1.58;;;;;;;9.38;51.16;96273.94;5115760;28;20427;-65
2022/01/04 00:22:21;;;;;;;4.28;1.35;;;;;;;9.37;51.03;96261.81;5115841;28;20023;-67
2022/01/04 00:24:46;;;;;;;2.17;1.25;;;;;;;9.40;50.95;96261.69;5115732;28;20448;-62
2022/01/04 00:27:12;;;;;;;1.60;1.20;;;;;;;9.31;51.03;96262.03;5115343;28;20032;-67
2022/01/04 00:29:38;;;;;;;5.00;1.80;;;;;;;9.36;50.55;96262.69;5115868;28;20381;-64
2022/01/04 00:32:04;;;;;;;2.08;1.23;;;;;;;9.43;50.45;96265.94;5115835;28;20488;-68
2022/01/04 00:34:29;;;;;;;4.97;1.70;;;;;;;9.42;50.60;96261.66;5115739;28;20416;-66
2022/01/04 00:36:55;;;;;;;1.67;1.30;;;;;;;9.40;50.35;96264.31;5115524;28;20034;-65
2022/01/04 00:39:21;;;;;;;1.98;1.40;;;;;;;9.42;50.40;96253.81;5115525;28;20027;-65
2022/01/04 00:41:46;;;;;;;2.28;1.35;;;;;;;9.40;50.48;96250.41;5115598;27;20439;-63
2022/01/04 00:44:13;;;;;;;2.55;1.80;;;;;;;9.44;50.31;96249.38;5115553;28;20020;-64
2022/01/04 00:46:39;;;;;;;1.52;1.25;;;;;;;9.38;50.04;96246.97;5115521;28;20473;-68
2022/01/04 00:49:10;;;;;;;3.58;1.50;;;;;;;9.38;49.74;96234.78;5115379;28;20030;-64
2022/01/04 00:51:42;;;;;;;2.33;1.67;;;;;;;9.42;49.43;96240.75;5115249;28;20443;-66
2022/01/04 00:54:08;;;;;;;2.47;1.77;;;;;;;9.46;49.20;96237.94;5115406;28;20019;-66
2022/01/04 00:56:34;;;;;;;5.97;1.85;;;;;;;9.47;50.79;96241.41;5115230;28;20122;-66
2022/01/04 00:59:00;;;;;;;4.93;2.25;;;;;;;9.32;51.56;96255.91;5115170;28;20082;-65
2022/01/04 01:01:25;;;;;;;2.13;1.58;;;;;;;9.10;51.06;96247.09;5115079;28;20016;-61
2022/01/04 01:03:52;;;;;;;2.42;1.67;;;;;;;8.99;51.80;96251.88;5115070;28;20055;-65
2022/01/04 01:06:18;;;;;;;6.03;1.58;;;;;;;8.83;51.91;96243.75;5114884;28;20406;-66
2022/01/04 01:08:44;;;;;;;23.60;15.77;;;;;;;8.62;52.08;96235.78;5115028;28;20114;-65
2022/01/04 01:11:10;;;;;;;3.50;2.60;;;;;;;8.67;52.00;96241.69;5115090;28;20119;-65
2022/01/04 01:13:38;;;;;;;2.10;1.90;;;;;;;8.74;51.37;96247.53;5114845;28;20031;-64
2022/01/04 01:16:05;;;;;;;3.40;2.15;;;;;;;8.54;53.73;96245.63;5114786;28;20110;-67
2022/01/04 01:18:30;;;;;;;3.58;2.05;;;;;;;8.31;54.31;96244.63;5114780;28;20030;-65
2022/01/04 01:20:57;;;;;;;2.90;2.33;;;;;;;8.19;54.63;96244.13;5114670;28;20027;-66
2022/01/04 01:23:23;;;;;;;3.80;2.10;;;;;;;8.09;54.75;96238.38;5114669;28;20023;-66
2022/01/04 01:25:50;;;;;;;3.90;2.25;;;;;;;7.99;55.16;96236.97;5114395;28;20469;-68
2022/01/04 01:28:16;;;;;;;7.00;2.05;;;;;;;7.63;56.55;96238.09;5114694;28;20094;-65
2022/01/04 01:30:43;;;;;;;3.50;1.98;;;;;;;7.50;56.78;96231.56;5114618;28;20028;-66
2022/01/04 01:33:10;;;;;;;6.32;2.00;;;;;;;7.31;56.87;96225.16;5114640;28;20034;-67
2022/01/04 01:35:37;;;;;;;4.35;2.30;;;;;;;7.28;56.90;96222.66;5114439;28;20062;-66
2022/01/04 01:38:04;;;;;;;2.35;1.70;;;;;;;7.16;57.72;96226.47;5113761;28;20016;-68
2022/01/04 01:40:30;;;;;;;4.97;2.17;;;;;;;7.03;58.52;96230.31;5114032;28;20015;-64
2022/01/04 01:42:56;;;;;;;2.22;1.77;;;;;;;6.95;58.54;96227.94;5114351;28;20030;-69
2022/01/04 01:45:23;;;;;;;3.20;2.20;;;;;;;6.90;58.66;96230.69;5114291;28;20016;-66
2022/01/04 01:47:50;;;;;;;3.05;2.50;;;;;;;6.82;58.70;96228.31;5114329;28;20031;-68
2022/01/04 01:50:16;;;;;;;5.80;3.10;;;;;;;6.73;58.81;96223.34;5114285;28;20023;-66
2022/01/04 01:52:46;;;;;;;2.95;2.22;;;;;;;6.55;58.94;96225.56;5114165;28;20042;-65
2022/01/04 01:55:12;;;;;;;3.40;2.20;;;;;;;6.45;59.56;96221.50;5114102;27;20059;-66
2022/01/04 01:57:38;;;;;;;2.35;1.77;;;;;;;6.41;59.30;96217.28;5114083;28;20473;-68
2022/01/04 02:00:06;;;;;;;2.03;1.75;;;;;;;6.27;59.80;96221.09;5113959;28;20461;-67
2022/01/04 02:02:32;;;;;;;2.47;1.77;;;;;;;6.15;60.13;96230.06;5113713;28;20032;-66
2022/01/04 02:04:58;;;;;;;6.88;2.25;;;;;;;6.09;61.21;96234.53;5113917;27;20088;-68
2022/01/04 02:07:25;;;;;;;5.10;1.70;;;;;;;5.99;60.57;96226.94;5113922;28;20095;-69
2022/01/04 02:10:02;;;;;;;4.38;1.70;;;;;;;5.86;61.17;96233.31;5113930;28;20020;-64
2022/01/04 02:12:29;;;;;;;1.95;1.50;;;;;;;5.63;62.26;96235.56;5114002;28;20422;-68
2022/01/04 02:14:55;;;;;;;3.28;1.88;;;;;;;5.56;63.03;96241.78;5113740;28;20020;-66
2022/01/04 02:17:20;;;;;;;4.50;1.50;;;;;;;5.50;62.48;96235.00;5113850;28;20061;-68
2022/01/04 02:19:46;;;;;;;2.08;1.63;;;;;;;5.52;62.01;96251.41;5113638;27;20030;-64
2022/01/04 02:22:12;;;;;;;2.65;1.65;;;;;;;5.50;62.54;96247.97;5113701;28;20027;-65
2022/01/04 02:24:37;;;;;;;2.58;1.85;;;;;;;5.43;63.23;96256.78;5113450;28;20403;-68
2022/01/04 02:27:04;;;;;;;3.10;2.50;;;;;;;5.24;63.12;96253.75;5113800;28;20034;-64
2022/01/04 02:29:29;;;;;;;3.30;2.17;;;;;;;5.25;64.14;96258.91;5113605;28;20068;-66
2022/01/04 02:31:55;;;;;;;2.50;1.80;;;;;;;5.28;64.04;96263.16;5113542;28;20023;-65
2022/01/04 02:34:20;;;;;;;3.72;1.60;;;;;;;5.25;63.34;96271.88;5113662;28;20024;-62
2022/01/04 02:36:46;;;;;;;5.72;2.10;;;;;;;5.17;62.70;96261.66;5113573;28;20031;-67
2022/01/04 02:39:11;;;;;;;1.60;1.42;;;;;;;5.06;62.93;96253.25;5113391;28;20028;-67
2022/01/04 02:41:37;;;;;;;4.43;2.00;;;;;;;4.90;64.03;96261.34;5113523;28;20059;-64
2022/01/04 02:44:04;;;;;;;3.13;1.90;;;;;;;4.85;64.59;96263.16;5113537;28;20023;-64
2022/01/04 02:46:29;;;;;;;2.13;1.40;;;;;;;4.85;64.11;96263.16;5113455;28;20027;-66
2022/01/04 02:48:55;;;;;;;2.65;1.55;;;;;;;4.70;63.19;96260.88;5113522;28;20030;-68
2022/01/04 02:51:20;;;;;;;5.78;1.75;;;;;;;4.65;64.43;96259.22;5117063;28;20053;-68
2022/01/04 02:53:46;;;;;;;2.05;1.50;;;;;;;4.53;64.62;96259.44;5117679;28;20016;-69
2022/01/04 02:56:14;;;;;;;2.03;1.58;;;;;;;4.38;64.80;96256.25;5117626;28;20031;-63
2022/01/04 02:58:39;;;;;;;2.58;1.92;;;;;;;4.29;66.06;96267.63;5117676;28;20110;-64
2022/01/04 03:01:05;;;;;;;1.33;1.20;;;;;;;4.29;65.25;96270.22;5117410;28;20110;-68
2022/01/04 03:03:31;;;;;;;1.55;1.33;;;;;;;4.25;65.16;96268.53;5117470;28;20110;-65
2022/01/04 03:05:56;;;;;;;3.58;1.42;;;;;;;4.21;64.83;96277.25;5117448;28;20028;-66
2022/01/04 03:08:23;;;;;;;2.78;1.35;;;;;;;4.25;65.20;96286.66;5117424;28;20027;-68
2022/01/04 03:10:49;;;;;;;2.10;1.85;;;;;;;4.24;65.73;96286.72;5117323;28;20103;-63
2022/01/04 03:13:16;;;;;;;1.75;1.30;;;;;;;4.20;65.39;96285.91;5117234;28;20015;-69
2022/01/04 03:15:42;;;;;;;2.65;1.40;;;;;;;4.11;65.91;96292.09;5117115;28;20016;-64
2022/01/04 03:18:08;;;;;;;3.38;1.38;;;;;;;4.08;66.60;96288.69;5117071;28;20019;-69
2022/01/04 03:20:34;;;;;;;2.22;1.58;;;;;;;4.06;66.57;96286.13;5117064;28;20055;-63
2022/01/04 03:23:00;;;;;;;2.13;1.80;;;;;;;4.03;67.15;96287.03;5117017;28;20023;-62
2022/01/04 03:25:26;;;;;;;2.13;1.30;;;;;;;3.88;67.41;96290.72;5116946;28;20040;-65
2022/01/04 03:27:51;;;;;;;6.55;1.40;;;;;;;3.92;66.96;96299.31;5116864;28;20494;-64
2022/01/04 03:30:17;;;;;;;6.53;1.50;;;;;;;3.91;67.17;96301.03;5116875;28;20023;-68
2022/01/04 03:32:42;;;;;;;3.28;1.50;;;;;;;3.93;66.93;96301.00;5116911;28;20024;-68
2022/01/04 03:35:09;;;;;;;1.95;1.33;;;;;;;3.91;67.09;96302.75;5116879;28;20104;-65
2022/01/04 03:37:34;;;;;;;2.55;1.80;;;;;;;3.88;67.24;96292.44;5116789;28;20039;-64
2022/01/04 03:40:00;;;;;;;1.38;1.27;;;;;;;3.85;66.95;96300.28;5116627;28;20066;-68
2022/01/04 03:42:25;;;;;;;1.60;1.15;;;;;;;3.85;67.16;96303.72;5116783;28;20031;-66
2022/01/04 03:44:51;;;;;;;1.95;1.25;;;;;;;3.86;66.50;96304.56;5116665;28;20038;-68
2022/01/04 03:47:16;;;;;;;2.20;1.60;;;;;;;3.91;66.33;96311.38;5116602;28;20525;-64
2022/01/04 03:49:42;;;;;;;2.63;1.70;;;;;;;3.96;66.57;96300.09;5116593;27;20028;-66
2022/01/04 03:52:08;;;;;;;1.67;1.40;;;;;;;3.91;66.68;96297.56;5116443;28;20385;-67
2022/01/04 03:54:33;;;;;;;5.90;2.05;;;;;;;3.91;67.29;96292.41;5116369;28;20023;-68
2022/01/04 03:56:59;;;;;;;1.60;1.50;;;;;;;3.86;67.41;96305.44;5116479;28;20027;-64
2022/01/04 03:59:24;;;;;;;2.17;1.40;;;;;;;3.89;67.91;96295.00;5116332;28;20034;-65
2022/01/04 04:01:50;;;;;;;4.00;1.75;;;;;;;3.89;66.87;96296.75;5115370;28;20107;-64
2022/01/04 04:04:16;;;;;;;2.97;1.20;;;;;;;3.85;66.91;96302.88;5116217;28;20016;-65
2022/01/04 04:06:42;;;;;;;1.77;1.33;;;;;;;3.83;67.35;96304.63;5116214;28;20472;-65
2022/01/04 04:09:08;;;;;;;2.20;1.33;;;;;;;3.73;67.50;96296.97;5116211;27;20024;-66
2022/01/04 04:11:34;;;;;;;2.47;1.40;;;;;;;3.45;67.43;96301.69;5116208;28;20366;-66
2022/01/04 04:13:59;;;;;;;1.73;1.30;;;;;;;3.37;67.78;96302.63;5116133;28;20027;-67
2022/01/04 04:16:25;;;;;;;1.20;1.10;;;;;;;3.37;67.67;96310.41;5116080;28;20069;-67
2022/01/04 04:18:51;;;;;;;2.95;1.48;;;;;;;3.32;67.83;96312.22;5115867;28;20043;-67
2022/01/04 04:21:16;;;;;;;2.08;1.40;;;;;;;3.28;68.33;96310.50;5115926;28;20031;-68
2022/01/04 04:23:43;;;;;;;2.38;1.95;;;;;;;3.26;68.47;96309.69;5116073;28;20393;-67
2022/01/04 04:26:08;;;;;;;2.33;1.80;;;;;;;3.20;68.77;96317.53;5115706;28;20051;-68
2022/01/04 04:28:34;;;;;;;1.38;1.27;;;;;;;3.14;69.02;96321.91;5115852;28;20019;-66
2022/01/04 04:31:01;;;;;;;3.65;1.50;;;;;;;3.09;68.51;96317.63;5115889;28;20137;-67
2022/01/04 04:33:27;;;;;;;2.92;1.55;;;;;;;3.06;68.66;96323.72;5115718;28;20107;-67
2022/01/04 04:35:53;;;;;;;2.05;1.70;;;;;;;3.02;68.45;96328.06;5115668;28;20098;-64
2022/01/04 04:38:19;;;;;;;3.83;2.03;;;;;;;2.93;68.47;96328.16;5115598;28;20415;-64
2022/01/04 04:40:45;;;;;;;5.50;2.00;;;;;;;2.89;68.60;96329.91;5115396;28;20024;-62
2022/01/04 04:43:10;;;;;;;8.88;1.63;;;;;;;2.86;69.00;96332.53;5115510;28;20103;-67
2022/01/04 04:45:36;;;;;;;3.42;1.90;;;;;;;2.77;68.87;96333.50;5115420;28;20043;-67
2022/01/04 04:48:02;;;;;;;3.83;1.58;;;;;;;2.67;69.12;96329.28;5115491;28;20066;-63
2022/01/04 04:50:27;;;;;;;5.95;2.72;;;;;;;2.72;69.09;96326.66;5115446;28;20449;-64
2022/01/04 04:52:53;;;;;;;3.53;1.52;;;;;;;2.64;69.35;96329.31;5115235;28;20024;-63
2022/01/04 04:55:18;;;;;;;2.65;1.58;;;;;;;2.62;69.75;96333.66;5115363;28;20023;-62
2022/01/04 04:57:44;;;;;;;8.30;2.13;;;;;;;2.69;69.93;96331.84;5115279;28;20106;-63
2022/01/04 05:00:10;;;;;;;2.45;1.38;;;;;;;2.77;70.10;96337.81;5115115;28;20102;-68
2022/01/04 05:02:37;;;;;;;3.03;2.22;;;;;;;2.83;70.12;96335.16;5115275;28;20458;-66
2022/01/04 05:05:02;;;;;;;2.03;1.17;;;;;;;2.71;69.59;96336.13;5115081;28;20012;-64
2022/01/04 05:07:28;;;;;;;4.25;1.20;;;;;;;2.66;69.67;96345.66;5113880;28;20038;-65
2022/01/04 05:09:54;;;;;;;1.42;1.02;;;;;;;2.69;69.88;96340.47;5113672;28;20107;-69
2022/01/04 05:12:19;;;;;;;2.70;1.23;;;;;;;2.68;69.65;96351.66;5114768;28;20027;-65
2022/01/04 05:14:46;;;;;;;2.15;1.00;;;;;;;2.63;69.49;96356.91;5114867;28;20030;-65
2022/01/04 05:17:15;;;;;;;6.32;1.40;;;;;;;2.64;69.91;96358.59;5114738;27;20051;-66
2022/01/04 05:19:41;;;;;;;1.48;1.00;;;;;;;2.65;69.56;96356.88;5114657;28;20050;-61
2022/01/04 05:22:07;;;;;;;2.55;1.50;;;;;;;2.54;70.04;96351.81;5114895;28;20469;-66
2022/01/04 05:24:34;;;;;;;2.28;1.02;;;;;;;2.47;70.27;96358.72;5114548;28;20019;-65
2022/01/04 05:26:59;;;;;;;2.28;1.20;;;;;;;2.42;70.36;96342.44;5114810;28;20038;-65
2022/01/04 05:29:25;;;;;;;1.42;1.00;;;;;;;2.38;70.57;96361.41;5114510;28;20031;-61
2022/01/04 05:31:50;;;;;;;4.38;2.15;;;;;;;2.36;70.97;96368.31;5114536;28;20031;-62
2022/01/04 05:34:20;;;;;;;7.13;1.50;;;;;;;2.35;71.11;96362.28;5114502;28;20020;-64
2022/01/04 05:36:46;;;;;;;6.07;1.20;;;;;;;2.35;71.21;96364.84;5114556;28;20366;-67
2022/01/04 05:39:11;;;;;;;1.88;1.20;;;;;;;2.39;70.86;96361.41;5114281;28;20267;-64
2022/01/04 05:41:37;;;;;;;3.35;1.08;;;;;;;2.49;70.89;96362.16;5114458;28;20032;-67
2022/01/04 05:44:02;;;;;;;1.45;1.00;;;;;;;2.52;71.03;96359.56;5114407;28;20020;-67
2022/01/04 05:46:28;;;;;;;3.20;1.00;;;;;;;2.58;70.89;96371.56;5114316;28;20016;-67
2022/01/04 05:48:54;;;;;;;4.20;1.25;;;;;;;2.58;70.71;96376.72;5114378;28;20389;-64
2022/01/04 05:51:20;;;;;;;5.15;0.82;;;;;;;2.65;70.71;96380.13;5114203;28;20139;-67
2022/01/04 05:53:45;;;;;;;2.22;1.20;;;;;;;2.65;70.95;96375.78;5114134;28;20063;-64
2022/01/04 05:56:11;;;;;;;4.55;1.20;;;;;;;2.63;70.35;96367.22;5114231;28;20465;-65
2022/01/04 05:58:37;;;;;;;1.77;1.00;;;;;;;2.69;69.70;96368.88;5114121;28;20417;-65
2022/01/04 06:01:02;;;;;;;1.20;0.63;;;;;;;2.73;70.11;96372.28;5113959;28;20062;-65
2022/01/04 06:03:28;;;;;;;1.05;0.77;;;;;;;2.83;69.84;96370.47;5114021;28;20020;-66
2022/01/04 06:05:54;;;;;;;1.60;1.00;;;;;;;2.86;70.08;96380.78;5114089;28;20400;-69
2022/01/04 06:08:21;;;;;;;2.30;1.00;;;;;;;2.87;69.91;96372.16;5113812;28;20373;-67
2022/01/04 06:10:51;;;;;;;1.02;0.70;;;;;;;2.86;69.50;96373.88;5113923;28;20027;-65
2022/01/04 06:16:02;;;;;;;3.47;0.65;;;;;;;2.81;69.46;96374.78;5114154;28;20053;-66
2022/01/04 06:18:27;;;;;;;0.95;0.60;;;;;;;2.81;69.70;96375.66;5113745;27;20470;-66
2022/01/04 06:20:55;;;;;;;1.45;0.93;;;;;;;2.87;69.75;96369.56;5113717;28;20489;-64
2022/01/04 06:23:21;;;;;;;0.80;0.80;;;;;;;2.97;69.36;96368.59;5113711;28;20107;-69
2022/01/04 06:25:46;;;;;;;2.05;0.98;;;;;;;3.11;69.08;96363.31;5112880;28;20430;-68
2022/01/04 06:28:12;;;;;;;0.98;0.70;;;;;;;3.74;68.00;96372.88;5113799;28;20027;-67
2022/01/04 06:30:37;;;;;;;1.40;0.88;;;;;;;4.51;65.30;96363.09;5113697;28;20084;-64
2022/01/04 06:33:03;;;;;;;1.65;0.70;;;;;;;5.79;62.12;96376.28;5113559;28;20023;-64
2022/01/04 06:35:30;;;;;;;1.73;1.48;;;;;;;7.07;58.47;96373.25;5113564;28;20018;-62
2022/01/04 06:37:56;;;;;;;1.10;0.95;;;;;;;8.21;54.08;96380.44;5113696;28;20030;-64
2022/01/04 06:40:22;;;;;;;1.25;0.90;;;;;;;9.37;51.64;96383.66;5113544;28;20431;-68
2022/01/04 06:42:47;;;;;;;0.90;0.80;;;;;;;10.39;49.58;96384.22;5113532;28;20024;-67
2022/01/04 06:45:14;;;;;;;4.43;0.90;;;;;;;11.78;45.20;96381.03;5113610;28;20012;-62
2022/01/04 06:47:41;;;;;;;2.60;1.35;;;;;;;13.30;42.33;96384.38;5113447;28;20454;-68
2022/01/04 06:50:07;;;;;;;1.55;1.08;;;;;;;14.80;39.79;96386.88;5113439;28;20457;-62
2022/01/04 06:52:33;;;;;;;1.80;0.80;;;;;;;15.66;37.47;96393.28;5113361;28;20034;-67
2022/01/04 06:54:58;;;;;;;2.63;1.38;;;;;;;16.54;34.89;96394.91;5113329;28;20460;-68
2022/01/04 06:57:24;;;;;;;3.75;1.00;;;;;;;17.39;33.76;96405.28;5113297;28;20019;-69
2022/01/04 06:59:49;;;;;;;2.45;1.10;;;;;;;17.73;33.77;96407.41;5113275;28;20024;-68
2022/01/04 07:02:15;;;;;;;2.03;1.45;;;;;;;17.61;32.80;96407.28;5113468;28;20073;-69
2022/01/04 07:04:40;;;;;;;3.13;1.38;;;;;;;18.01;33.32;96409.00;5113395;28;20043;-69
2022/01/04 07:07:06;;;;;;;3.63;1.33;;;;;;;18.28;31.91;96412.47;5113385;28;20516;-64
2022/01/04 07:09:32;;;;;;;1.50;0.85;;;;;;;18.18;32.54;96413.09;5113339;28;20088;-68
2022/01/04 07:11:57;;;;;;;0.70;0.68;;;;;;;18.29;32.76;96419.44;5113358;28;20039;-68
2022/01/04 07:14:23;;;;;;;3.80;1.33;;;;;;;18.67;31.95;96417.63;5113210;28;20030;-70
2022/01/04 07:16:48;;;;;;;1.80;0.80;;;;;;;19.11;32.43;96417.97;5113322;28;20535;-70
2022/01/04 07:19:15;;;;;;;0.95;0.60;;;;;;;19.43;30.94;96417.38;5113037;28;20024;-66
2022/01/04 07:21:41;;;;;;;2.30;0.90;;;;;;;19.36;31.35;96415.28;5113028;28;20492;-64
2022/01/04 07:24:07;;;;;;;1.58;0.90;;;;;;;19.35;31.45;96414.44;5113094;28;20419;-66
2022/01/04 07:26:32;;;;;;;1.00;0.80;;;;;;;19.33;31.26;96397.81;5112852;28;20051;-69
2022/01/04 07:28:58;;;;;;;0.70;0.70;;;;;;;19.70;31.21;96400.28;5113072;28;20039;-68
2022/01/04 07:31:24;;;;;;;0.90;0.70;;;;;;;20.28;31.01;96402.94;5113088;28;20020;-69
2022/01/04 07:33:49;;;;;;;1.75;0.80;;;;;;;20.39;30.53;96408.25;5113268;28;20453;-66
2022/01/04 07:36:15;;;;;;;2.08;0.85;;;;;;;20.47;29.22;96404.16;5112998;28;20039;-65
2022/01/04 07:38:42;;;;;;;1.75;0.88;;;;;;;21.01;28.93;96406.91;5116728;28;20059;-66
2022/01/04 07:41:08;;;;;;;0.95;0.75;;;;;;;21.64;29.28;96398.09;5116715;27;20027;-66
2022/01/04 07:43:34;;;;;;;1.20;0.80;;;;;;;22.19;28.96;96399.63;5116760;28;20024;-63
2022/01/04 07:46:00;;;;;;;0.85;0.70;;;;;;;22.43;28.23;96395.78;5116633;28;20042;-64
2022/01/04 07:48:25;;;;;;;1.10;0.60;;;;;;;22.33;27.44;96390.44;5116640;28;20450;-67
2022/01/04 07:50:55;;;;;;;1.65;0.98;;;;;;;21.74;27.48;96384.00;5116609;28;20020;-66
2022/01/04 07:53:22;;;;;;;3.78;1.38;;;;;;;21.46;28.24;96380.06;5116659;28;20028;-66
2022/01/04 07:55:48;;;;;;;1.23;1.00;;;;;;;21.62;27.17;96381.44;5116453;28;20035;-66
2022/01/04 07:58:14;;;;;;;1.85;1.23;;;;;;;21.76;26.65;96379.44;5116432;28;20046;-70
2022/01/04 08:00:40;;;;;;;1.42;1.00;;;;;;;21.90;27.22;96368.44;5116218;28;20362;-65
2022/01/04 08:03:07;;;;;;;1.63;1.00;;;;;;;22.19;28.03;96367.69;5116472;28;20023;-65
2022/01/04 08:05:32;;;;;;;2.65;1.05;;;;;;;22.41;27.31;96372.94;5116246;28;20034;-65
2022/01/04 08:07:58;;;;;;;2.60;1.27;;;;;;;23.10;26.30;96370.34;5116311;28;20020;-63
2022/01/04 08:10:24;;;;;;;2.90;1.40;;;;;;;23.78;25.79;96367.72;5115192;28;20481;-64
2022/01/04 08:12:49;;;;;;;2.10;1.30;;;;;;;24.57;25.24;96372.72;5116340;28;20354;-64
2022/01/04 08:15:16;;;;;;;1.70;1.40;;;;;;;25.32;23.09;96368.91;5116062;28;20422;-64
2022/01/04 08:17:42;;;;;;;2.83;1.52;;;;;;;25.78;22.51;96375.06;5116053;28;20019;-64
2022/01/04 08:20:08;;;;;;;3.92;0.90;;;;;;;26.47;21.39;96377.78;5115947;28;20020;-64
2022/01/04 08:22:34;;;;;;;3.05;1.50;;;;;;;26.95;20.07;96368.28;5115856;28;20039;-67
2022/01/04 08:25:06;;;;;;;2.40;1.20;;;;;;;26.81;21.37;96369.78;5115667;28;20198;-63
2022/01/04 08:27:33;;;;;;;2.50;1.05;;;;;;;26.34;21.88;96362.13;5115996;28;20024;-70
2022/01/04 08:29:59;;;;;;;2.72;1.42;;;;;;;25.96;22.56;96358.94;5115796;28;20019;-62
2022/01/04 08:32:25;;;;;;;1.27;1.13;;;;;;;25.44;23.02;96360.63;5115826;28;20458;-67
2022/01/04 08:34:51;;;;;;;3.33;1.30;;;;;;;25.14;24.35;96368.94;5115621;28;20026;-66
2022/01/04 08:37:17;;;;;;;3.58;1.15;;;;;;;25.00;24.27;96370.31;5115569;28;20373;-64
2022/01/04 08:39:44;;;;;;;1.13;0.95;;;;;;;25.01;24.00;96368.47;5115473;28;20024;-68
2022/01/04 08:42:09;;;;;;;2.05;1.05;;;;;;;24.55;22.94;96369.34;5115606;28;20059;-65
2022/01/04 08:44:39;;;;;;;2.65;1.30;;;;;;;24.10;24.38;96369.13;5115642;28;20048;-65
2022/01/04 08:47:08;;;;;;;1.40;1.20;;;;;;;23.69;25.75;96364.09;5115276;28;20035;-64
2022/01/04 08:49:34;;;;;;;3.22;1.38;;;;;;;23.38;25.36;96356.31;5114992;28;20028;-67
2022/01/04 08:52:01;;;;;;;1.92;1.20;;;;;;;22.74;26.31;96360.25;5115374;28;20556;-67
2022/01/04 08:54:27;;;;;;;2.72;1.52;;;;;;;22.33;27.25;96361.13;5115376;28;20053;-68
2022/01/04 08:56:54;;;;;;;3.38;1.75;;;;;;;21.56;29.73;96353.53;5115342;28;20062;-66
2022/01/04 08:59:20;;;;;;;1.95;1.17;;;;;;;20.40;30.10;96346.19;5115094;28;20032;-70
2022/01/04 09:01:46;;;;;;;1.85;1.30;;;;;;;19.66;28.74;96355.53;5115098;28;20470;-66
2022/01/04 09:04:11;;;;;;;2.70;1.40;;;;;;;19.45;29.23;96350.94;5115182;28;20032;-66
2022/01/04 09:06:37;;;;;;;5.38;2.33;;;;;;;19.40;29.69;96350.44;5115018;28;20019;-69
2022/01/04 09:09:04;;;;;;;4.03;2.25;;;;;;;19.10;29.11;96339.41;5114975;28;20019;-67
2022/01/04 09:11:29;;;;;;;2.80;2.05;;;;;;;19.03;29.06;96338.16;5115089;28;20027;-65
2022/01/04 09:14:11;;;;;;;6.75;2.35;;;;;;;18.48;30.43;96342.16;5114920;27;20023;-67
2022/01/04 09:19:24;;;;;;;4.43;2.80;;;;;;;17.26;33.55;96342.69;5115177;28;20058;-65
2022/01/04 09:21:50;;;;;;;4.60;2.53;;;;;;;17.01;33.07;96338.19;5114834;28;20496;-66
2022/01/04 09:24:17;;;;;;;3.10;2.00;;;;;;;16.38;33.67;96330.84;5114795;28;20031;-63
2022/01/04 09:26:42;;;;;;;4.53;2.30;;;;;;;15.99;34.48;96326.25;5114583;28;20047;-65
2022/01/04 09:29:08;;;;;;;4.50;2.70;;;;;;;15.88;34.81;96326.88;5114650;28;20020;-66
2022/01/04 09:31:34;;;;;;;4.07;1.75;;;;;;;15.79;34.38;96322.19;5114748;28;20100;-68
2022/01/04 09:34:02;;;;;;;2.65;2.03;;;;;;;15.78;34.80;96304.69;5114709;28;20475;-66
2022/01/04 09:36:32;;;;;;;2.72;1.90;;;;;;;15.64;35.02;96305.53;5114536;28;20020;-61
2022/01/04 09:38:58;;;;;;;5.85;1.95;;;;;;;15.60;35.70;96311.94;5114405;28;20397;-64
2022/01/04 09:41:24;;;;;;;7.22;1.83;;;;;;;15.49;35.90;96304.69;5114355;28;20397;-68
2022/01/04 09:43:52;;;;;;;4.55;3.17;;;;;;;15.54;34.99;96303.47;5114451;28;20016;-63
2022/01/04 09:46:18;;;;;;;1.73;1.35;;;;;;;15.54;34.38;96298.19;5114446;28;20020;-67
2022/01/04 09:48:44;;;;;;;3.45;1.60;;;;;;;15.45;35.03;96298.78;5114216;28;20045;-64
2022/01/04 09:51:12;;;;;;;2.20;1.20;;;;;;;15.40;35.97;96287.66;5114232;28;20026;-65
2022/01/04 09:53:37;;;;;;;3.17;1.70;;;;;;;15.46;34.40;96294.34;5114174;28;20019;-69
2022/01/04 09:56:03;;;;;;;2.17;1.70;;;;;;;15.39;34.93;96299.97;5114292;28;20110;-69
2022/01/04 09:58:30;;;;;;;2.78;1.27;;;;;;;15.22;33.81;96305.44;5114189;28;20158;-67
2022/01/04 10:00:56;;;;;;;1.67;1.17;;;;;;;15.24;34.11;96307.06;5113172;28;20598;-67
2022/01/04 10:03:28;;;;;;;1.70;1.17;;;;;;;15.09;34.87;96305.34;5113998;28;20020;-67
2022/01/04 10:06:20;;;;;;;1.80;0.98;;;;;;;14.95;34.00;96303.50;5113923;28;20457;-67
2022/01/04 10:09:04;;;;;;;6.10;1.00;;;;;;;14.84;35.20;96302.38;5110195;28;20071;-66
2022/01/04 10:11:36;;;;;;;1.48;1.20;;;;;;;14.68;35.47;96304.16;5114031;28;20031;-64
2022/01/04 10:14:23;;;;;;;2.65;1.05;;;;;;;14.59;34.04;96289.75;5113942;28;20019;-67
2022/01/04 10:16:51;;;;;;;1.17;1.08;;;;;;;14.53;35.65;96290.97;5113875;28;20031;-69
2022/01/04 10:19:33;;;;;;;2.22;1.00;;;;;;;14.62;35.83;96297.47;5113738;28;20024;-63
2022/01/04 10:22:14;;;;;;;3.35;1.35;;;;;;;14.65;35.33;96292.91;5113843;28;20027;-68
2022/01/04 10:24:42;;;;;;;1.73;1.30;;;;;;;14.75;34.29;96295.84;5112209;28;20474;-67
2022/01/04 10:27:32;;;;;;;2.85;1.30;;;;;;;14.79;36.15;96283.38;5113807;28;20032;-64
2022/01/04 10:30:10;;;;;;;3.42;1.50;;;;;;;14.84;36.51;96286.56;5113637;28;20053;-66
2022/01/04 10:32:43;;;;;;;2.17;1.15;;;;;;;14.73;36.47;96291.59;5113716;28;20381;-65
2022/01/04 10:35:09;;;;;;;2.42;1.30;;;;;;;14.72;35.32;96280.22;5113732;28;20020;-66
2022/01/04 10:37:38;;;;;;;2.72;1.85;;;;;;;14.70;35.69;96275.97;5113586;28;20041;-65
2022/01/04 10:40:07;;;;;;;1.35;0.98;;;;;;;14.60;36.95;96263.34;5113480;28;20118;-66
2022/01/04 10:42:33;;;;;;;2.22;1.60;;;;;;;14.56;36.32;96261.00;5113481;28;20054;-67
2022/01/04 10:44:58;;;;;;;3.08;1.13;;;;;;;14.51;36.77;96254.22;5113501;28;20473;-67
2022/01/04 10:47:29;;;;;;;1.55;1.23;;;;;;;14.61;37.32;96254.53;5113530;28;20016;-63
2022/01/04 10:49:55;;;;;;;1.80;1.10;;;;;;;14.62;36.87;96247.47;5113456;28;20427;-65
2022/01/04 10:52:31;;;;;;;1.52;1.10;;;;;;;14.48;34.98;96251.75;5113311;28;20028;-65
2022/01/04 10:55:14;;;;;;;1.77;1.02;;;;;;;14.33;35.68;96250.88;5113439;28;20493;-66
2022/01/04 10:57:40;;;;;;;1.52;1.38;;;;;;;14.41;35.65;96242.53;5113595;28;20024;-66
2022/01/04 11:00:17;;;;;;;2.42;1.23;;;;;;;14.37;36.99;96235.78;5113272;28;20099;-65
2022/01/04 11:02:42;;;;;;;2.65;1.40;;;;;;;14.38;37.63;96240.94;5113324;28;20034;-68
2022/01/04 11:05:15;;;;;;;2.75;1.33;;;;;;;14.43;37.13;96231.94;5113425;28;20102;-65
2022/01/04 11:08:17;;;;;;;1.88;1.40;;;;;;;14.60;35.72;96223.88;5113425;28;20028;-69
2022/01/04 11:10:44;;;;;;;1.42;1.25;;;;;;;14.61;36.75;96224.72;5031382;28;20037;-65
2022/01/04 11:13:10;;;;;;;2.55;1.52;;;;;;;14.40;37.27;96227.69;5101468;27;20043;-67
2022/01/04 11:15:36;;;;;;;1.77;1.52;;;;;;;14.21;36.92;96231.38;5117315;28;20023;-66
2022/01/04 11:18:02;;;;;;;2.97;1.30;;;;;;;14.24;37.79;96225.94;5117134;28;20020;-66
2022/01/04 11:20:27;;;;;;;1.58;1.38;;;;;;;14.36;37.62;96223.56;5117192;28;20072;-66
2022/01/04 11:22:57;;;;;;;4.00;1.48;;;;;;;14.39;38.37;96224.22;5117252;27;20541;-66
2022/01/04 11:25:24;;;;;;;2.58;1.85;;;;;;;14.45;38.14;96222.16;5116894;28;20067;-65
2022/01/04 11:27:52;;;;;;;5.05;2.20;;;;;;;14.53;38.01;96215.50;5117007;28;20462;-65
2022/01/04 11:30:25;;;;;;;5.85;2.47;;;;;;;14.29;39.67;96220.41;5117001;28;20072;-64
2022/01/04 11:33:02;;;;;;;7.07;1.92;;;;;;;14.17;39.53;96215.91;5117175;28;20032;-66
2022/01/04 11:35:29;;;;;;;5.20;2.30;;;;;;;14.10;39.61;96212.75;5117038;28;20024;-64
2022/01/04 11:38:00;;;;;;;2.88;1.90;;;;;;;14.00;39.78;96218.53;5116919;28;20043;-68
2022/01/04 11:40:39;;;;;;;3.55;2.53;;;;;;;14.06;41.73;96216.50;5116792;28;20031;-64
2022/01/04 11:43:23;;;;;;;5.22;2.63;;;;;;;13.99;41.74;96218.63;5116833;28;20090;-65
2022/01/04 11:45:49;;;;;;;5.68;2.58;;;;;;;13.97;42.16;96202.94;5116814;28;20097;-64